sensor_id;sensor_type;location;lat;lon;timestamp;pressure;altitude;pressure_sealevel;temperature;humidity
51928;BME280;37953;52.806;18.270;2023-05-03T00:00:08;101447.53;;;12.25;80.67
51928;BME280;37953;52.806;18.270;2023-05-03T00:02:54;101448.38;;;12.22;80.31
51928;BME280;37953;52.806;18.270;2023-05-03T00:05:21;101447.50;;;12.20;80.21
51928;BME280;37953;52.806;18.270;2023-05-03T00:07:48;101446.56;;;12.16;80.19
51928;BME280;37953;52.806;18.270;2023-05-03T00:10:14;101448.28;;;12.14;79.72
51928;BME280;37953;52.806;18.270;2023-05-03T00:12:43;101456.09;;;12.14;77.65
51928;BME280;37953;52.806;18.270;2023-05-03T00:15:09;101456.97;;;12.13;77.16
51928;BME280;37953;52.806;18.270;2023-05-03T00:17:36;101455.19;;;12.12;77.57
51928;BME280;37953;52.806;18.270;2023-05-03T00:20:03;101449.97;;;12.09;76.89
51928;BME280;37953;52.806;18.270;2023-05-03T00:22:30;101456.03;;;12.08;76.84
51928;BME280;37953;52.806;18.270;2023-05-03T00:25:02;101449.91;;;12.06;77.10
51928;BME280;37953;52.806;18.270;2023-05-03T00:27:29;101453.41;;;12.05;78.34
51928;BME280;37953;52.806;18.270;2023-05-03T00:29:55;101459.50;;;12.07;79.38
51928;BME280;37953;52.806;18.270;2023-05-03T00:32:21;101460.34;;;12.06;80.43
51928;BME280;37953;52.806;18.270;2023-05-03T00:34:59;101448.22;;;12.08;80.08
51928;BME280;37953;52.806;18.270;2023-05-03T00:37:25;101462.94;;;12.06;80.00
51928;BME280;37953;52.806;18.270;2023-05-03T00:39:52;101463.78;;;12.04;80.65
51928;BME280;37953;52.806;18.270;2023-05-03T00:42:18;101460.28;;;12.01;81.55
51928;BME280;37953;52.806;18.270;2023-05-03T00:44:44;101458.53;;;11.99;80.47
51928;BME280;37953;52.806;18.270;2023-05-03T00:47:10;101457.66;;;11.98;80.31
51928;BME280;37953;52.806;18.270;2023-05-03T00:49:42;101454.16;;;11.96;80.81
51928;BME280;37953;52.806;18.270;2023-05-03T00:52:09;101452.38;;;11.92;81.74
51928;BME280;37953;52.806;18.270;2023-05-03T00:54:36;101452.31;;;11.89;81.35
51928;BME280;37953;52.806;18.270;2023-05-03T00:57:03;101461.78;;;11.87;81.86
51928;BME280;37953;52.806;18.270;2023-05-03T00:59:31;101462.59;;;11.83;81.55
51928;BME280;37953;52.806;18.270;2023-05-03T01:02:02;101473.84;;;11.80;82.06
51928;BME280;37953;52.806;18.270;2023-05-03T01:04:29;101471.22;;;11.77;80.58
51928;BME280;37953;52.806;18.270;2023-05-03T01:07:06;101474.69;;;11.78;79.80
51928;BME280;37953;52.806;18.270;2023-05-03T01:09:58;101473.78;;;11.76;80.01
51928;BME280;37953;52.806;18.270;2023-05-03T01:18:15;101472.78;;;11.66;79.65
51928;BME280;37953;52.806;18.270;2023-05-03T01:20:47;101474.41;;;11.59;79.69
51928;BME280;37953;52.806;18.270;2023-05-03T01:23:21;101475.25;;;11.57;80.49
51928;BME280;37953;52.806;18.270;2023-05-03T01:25:57;101472.53;;;11.48;81.15
51928;BME280;37953;52.806;18.270;2023-05-03T01:28:23;101475.06;;;11.45;80.38
51928;BME280;37953;52.806;18.270;2023-05-03T01:30:51;101482.78;;;11.38;79.83
51928;BME280;37953;52.806;18.270;2023-05-03T01:33:31;101479.28;;;11.35;80.42
51928;BME280;37953;52.806;18.270;2023-05-03T01:36:20;101485.28;;;11.32;80.44
51928;BME280;37953;52.806;18.270;2023-05-03T01:38:48;101484.31;;;11.26;81.01
51928;BME280;37953;52.806;18.270;2023-05-03T01:41:16;101490.28;;;11.18;81.84
51928;BME280;37953;52.806;18.270;2023-05-03T01:43:43;101482.41;;;11.14;82.09
51928;BME280;37953;52.806;18.270;2023-05-03T01:46:10;101486.63;;;11.09;82.50
51928;BME280;37953;52.806;18.270;2023-05-03T01:48:36;101486.59;;;11.06;81.77
51928;BME280;37953;52.806;18.270;2023-05-03T01:51:02;101482.19;;;11.02;82.81
51928;BME280;37953;52.806;18.270;2023-05-03T01:53:28;101489.91;;;10.97;83.09
51928;BME280;37953;52.806;18.270;2023-05-03T01:55:54;101488.97;;;10.93;83.57
51928;BME280;37953;52.806;18.270;2023-05-03T01:58:22;101487.13;;;10.88;83.80
51928;BME280;37953;52.806;18.270;2023-05-03T02:00:48;101492.25;;;10.83;84.50
51928;BME280;37953;52.806;18.270;2023-05-03T02:03:14;101488.72;;;10.78;85.28
51928;BME280;37953;52.806;18.270;2023-05-03T02:05:41;101492.97;;;10.74;86.24
51928;BME280;37953;52.806;18.270;2023-05-03T02:08:07;101485.09;;;10.70;86.42
51928;BME280;37953;52.806;18.270;2023-05-03T02:10:33;101481.53;;;10.65;87.33
51928;BME280;37953;52.806;18.270;2023-05-03T02:12:59;101484.03;;;10.58;87.47
51928;BME280;37953;52.806;18.270;2023-05-03T02:15:25;101486.50;;;10.52;87.55
51928;BME280;37953;52.806;18.270;2023-05-03T02:17:51;101482.94;;;10.49;87.35
51928;BME280;37953;52.806;18.270;2023-05-03T02:20:18;101488.09;;;10.46;87.92
51928;BME280;37953;52.806;18.270;2023-05-03T02:22:44;101489.81;;;10.45;87.05
51928;BME280;37953;52.806;18.270;2023-05-03T02:25:10;101486.28;;;10.42;87.82
51928;BME280;37953;52.806;18.270;2023-05-03T02:27:36;101485.34;;;10.38;87.69
51928;BME280;37953;52.806;18.270;2023-05-03T02:30:02;101491.38;;;10.35;88.87
51928;BME280;37953;52.806;18.270;2023-05-03T02:32:28;101488.69;;;10.31;88.96
51928;BME280;37953;52.806;18.270;2023-05-03T02:34:55;101486.84;;;10.28;88.85
51928;BME280;37953;52.806;18.270;2023-05-03T02:37:24;101488.50;;;10.25;89.04
51928;BME280;37953;52.806;18.270;2023-05-03T02:39:50;101492.72;;;10.19;89.25
51928;BME280;37953;52.806;18.270;2023-05-03T02:42:16;101492.66;;;10.16;89.58
51928;BME280;37953;52.806;18.270;2023-05-03T02:44:42;101494.28;;;10.11;89.60
51928;BME280;37953;52.806;18.270;2023-05-03T02:47:14;101498.56;;;10.09;89.99
51928;BME280;37953;52.806;18.270;2023-05-03T02:49:41;101494.97;;;10.03;90.25
51928;BME280;37953;52.806;18.270;2023-05-03T02:52:06;101496.63;;;9.99;89.96
51928;BME280;37953;52.806;18.270;2023-05-03T02:54:32;101488.72;;;9.94;90.30
51928;BME280;37953;52.806;18.270;2023-05-03T02:56:58;101503.34;;;9.89;90.30
51928;BME280;37953;52.806;18.270;2023-05-03T02:59:24;101502.38;;;9.86;90.34
51928;BME280;37953;52.806;18.270;2023-05-03T03:01:50;101507.47;;;9.81;90.93
51928;BME280;37953;52.806;18.270;2023-05-03T03:04:16;101503.06;;;9.77;91.60
51928;BME280;37953;52.806;18.270;2023-05-03T03:06:42;101506.41;;;9.73;90.94
51928;BME280;37953;52.806;18.270;2023-05-03T03:09:08;101506.31;;;9.68;91.97
51928;BME280;37953;52.806;18.270;2023-05-03T03:11:34;101512.28;;;9.64;92.43
51928;BME280;37953;52.806;18.270;2023-05-03T03:14:01;101503.53;;;9.59;92.71
51928;BME280;37953;52.806;18.270;2023-05-03T03:16:26;101515.53;;;9.55;93.71
51928;BME280;37953;52.806;18.270;2023-05-03T03:18:53;101510.25;;;9.51;93.25
51928;BME280;37953;52.806;18.270;2023-05-03T03:21:19;101518.84;;;9.50;94.08
51928;BME280;37953;52.806;18.270;2023-05-03T03:23:45;101516.19;;;9.47;94.10
51928;BME280;37953;52.806;18.270;2023-05-03T03:26:14;101521.38;;;9.47;94.31
51928;BME280;37953;52.806;18.270;2023-05-03T03:28:40;101517.88;;;9.45;94.98
51928;BME280;37953;52.806;18.270;2023-05-03T03:31:06;101522.19;;;9.44;95.26
51928;BME280;37953;52.806;18.270;2023-05-03T03:33:32;101523.88;;;9.42;95.15
51928;BME280;37953;52.806;18.270;2023-05-03T03:35:58;101524.69;;;9.41;95.78
51928;BME280;37953;52.806;18.270;2023-05-03T03:38:24;101524.69;;;9.41;95.45
51928;BME280;37953;52.806;18.270;2023-05-03T03:40:50;101534.25;;;9.42;95.97
51928;BME280;37953;52.806;18.270;2023-05-03T03:43:17;101528.16;;;9.42;96.46
51928;BME280;37953;52.806;18.270;2023-05-03T03:45:43;101526.47;;;9.44;96.53
51928;BME280;37953;52.806;18.270;2023-05-03T03:48:09;101536.94;;;9.47;96.99
51928;BME280;37953;52.806;18.270;2023-05-03T03:50:35;101532.63;;;9.47;97.04
51928;BME280;37953;52.806;18.270;2023-05-03T03:53:02;101531.00;;;9.51;96.12
51928;BME280;37953;52.806;18.270;2023-05-03T03:55:27;101532.78;;;9.53;96.37
51928;BME280;37953;52.806;18.270;2023-05-03T03:57:53;101534.59;;;9.57;95.85
51928;BME280;37953;52.806;18.270;2023-05-03T04:00:19;101542.44;;;9.61;95.39
51928;BME280;37953;52.806;18.270;2023-05-03T04:02:46;101543.41;;;9.64;94.59
51928;BME280;37953;52.806;18.270;2023-05-03T04:05:12;101537.44;;;9.68;94.70
51928;BME280;37953;52.806;18.270;2023-05-03T04:07:38;101547.84;;;9.68;94.69
51928;BME280;37953;52.806;18.270;2023-05-03T04:10:04;101542.69;;;9.70;94.43
51928;BME280;37953;52.806;18.270;2023-05-03T04:12:36;101547.94;;;9.73;93.89
51928;BME280;37953;52.806;18.270;2023-05-03T04:15:03;101551.41;;;9.73;94.34
51928;BME280;37953;52.806;18.270;2023-05-03T04:17:29;101559.22;;;9.75;94.61
51928;BME280;37953;52.806;18.270;2023-05-03T04:19:57;101556.69;;;9.76;94.68
51928;BME280;37953;52.806;18.270;2023-05-03T04:22:23;101557.59;;;9.78;94.17
51928;BME280;37953;52.806;18.270;2023-05-03T04:24:49;101559.38;;;9.81;94.23
51928;BME280;37953;52.806;18.270;2023-05-03T04:27:16;101562.00;;;9.83;94.25
51928;BME280;37953;52.806;18.270;2023-05-03T04:29:42;101562.88;;;9.83;94.67
51928;BME280;37953;52.806;18.270;2023-05-03T04:32:15;101563.84;;;9.87;95.34
51928;BME280;37953;52.806;18.270;2023-05-03T04:34:43;101568.25;;;9.91;95.27
51928;BME280;37953;52.806;18.270;2023-05-03T04:37:09;101575.25;;;9.93;93.81
51928;BME280;37953;52.806;18.270;2023-05-03T04:39:35;101577.03;;;9.96;93.86
51928;BME280;37953;52.806;18.270;2023-05-03T04:42:01;101567.50;;;9.96;93.66
51928;BME280;37953;52.806;18.270;2023-05-03T04:44:27;101579.72;;;9.99;94.01
51928;BME280;37953;52.806;18.270;2023-05-03T04:46:54;101577.13;;;10.01;93.60
51928;BME280;37953;52.806;18.270;2023-05-03T04:49:19;101576.28;;;10.02;93.68
51928;BME280;37953;52.806;18.270;2023-05-03T04:51:45;101573.69;;;10.02;94.16
51928;BME280;37953;52.806;18.270;2023-05-03T04:54:11;101579.81;;;10.04;95.14
51928;BME280;37953;52.806;18.270;2023-05-03T04:56:38;101583.31;;;10.06;95.94
51928;BME280;37953;52.806;18.270;2023-05-03T04:59:03;101587.66;;;10.07;97.37
51928;BME280;37953;52.806;18.270;2023-05-03T05:01:30;101596.31;;;10.07;97.79
51928;BME280;37953;52.806;18.270;2023-05-03T05:03:56;101594.63;;;10.08;98.34
51928;BME280;37953;52.806;18.270;2023-05-03T05:06:37;101585.13;;;10.10;99.71
51928;BME280;37953;52.806;18.270;2023-05-03T05:09:05;101595.53;;;10.11;99.99
51928;BME280;37953;52.806;18.270;2023-05-03T05:11:32;101603.38;;;10.13;100.00
51928;BME280;37953;52.806;18.270;2023-05-03T05:13:58;101605.16;;;10.15;100.00
51928;BME280;37953;52.806;18.270;2023-05-03T05:16:24;101605.19;;;10.17;100.00
51928;BME280;37953;52.806;18.270;2023-05-03T05:18:50;101607.84;;;10.18;100.00
51928;BME280;37953;52.806;18.270;2023-05-03T05:21:16;101607.88;;;10.22;100.00
51928;BME280;37953;52.806;18.270;2023-05-03T05:23:42;101607.97;;;10.25;100.00
51928;BME280;37953;52.806;18.270;2023-05-03T05:26:08;101611.47;;;10.27;100.00
51928;BME280;37953;52.806;18.270;2023-05-03T05:28:34;101607.97;;;10.26;100.00
51928;BME280;37953;52.806;18.270;2023-05-03T05:31:00;101609.84;;;10.30;100.00
51928;BME280;37953;52.806;18.270;2023-05-03T05:33:26;101618.59;;;10.34;100.00
51928;BME280;37953;52.806;18.270;2023-05-03T05:35:52;101612.63;;;10.38;100.00
51928;BME280;37953;52.806;18.270;2023-05-03T05:38:18;101613.56;;;10.42;100.00
51928;BME280;37953;52.806;18.270;2023-05-03T05:40:44;101616.22;;;10.45;100.00
51928;BME280;37953;52.806;18.270;2023-05-03T05:43:10;101621.50;;;10.48;100.00
51928;BME280;37953;52.806;18.270;2023-05-03T05:45:37;101624.13;;;10.49;100.00
51928;BME280;37953;52.806;18.270;2023-05-03T05:48:03;101623.34;;;10.53;100.00
51928;BME280;37953;52.806;18.270;2023-05-03T05:50:29;101622.53;;;10.56;100.00
51928;BME280;37953;52.806;18.270;2023-05-03T05:52:56;101633.91;;;10.61;100.00
51928;BME280;37953;52.806;18.270;2023-05-03T05:55:22;101640.88;;;10.64;100.00
51928;BME280;37953;52.806;18.270;2023-05-03T05:57:48;101647.84;;;10.65;100.00
51928;BME280;37953;52.806;18.270;2023-05-03T06:00:14;101645.34;;;10.69;100.00
51928;BME280;37953;52.806;18.270;2023-05-03T06:02:42;101646.25;;;10.71;100.00
51928;BME280;37953;52.806;18.270;2023-05-03T06:05:10;101646.25;;;10.73;100.00
51928;BME280;37953;52.806;18.270;2023-05-03T06:07:36;101653.22;;;10.74;100.00
51928;BME280;37953;52.806;18.270;2023-05-03T06:10:03;101647.19;;;10.75;100.00
51928;BME280;37953;52.806;18.270;2023-05-03T06:12:30;101651.53;;;10.76;100.00
51928;BME280;37953;52.806;18.270;2023-05-03T06:14:55;101645.50;;;10.77;100.00
51928;BME280;37953;52.806;18.270;2023-05-03T06:17:22;101642.09;;;10.81;100.00
51928;BME280;37953;52.806;18.270;2023-05-03T06:19:48;101654.31;;;10.85;100.00
51928;BME280;37953;52.806;18.270;2023-05-03T06:22:20;101650.91;;;10.88;100.00
51928;BME280;37953;52.806;18.270;2023-05-03T06:24:46;101651.03;;;10.92;100.00
51928;BME280;37953;52.806;18.270;2023-05-03T06:27:12;101653.63;;;10.94;99.53
51928;BME280;37953;52.806;18.270;2023-05-03T06:29:38;101656.31;;;10.97;99.81
51928;BME280;37953;52.806;18.270;2023-05-03T06:32:04;101654.59;;;10.97;100.00
51928;BME280;37953;52.806;18.270;2023-05-03T06:34:30;101659.81;;;11.00;99.16
51928;BME280;37953;52.806;18.270;2023-05-03T06:36:56;101656.44;;;11.05;98.82
51928;BME280;37953;52.806;18.270;2023-05-03T06:39:22;101656.44;;;11.05;95.58
51928;BME280;37953;52.806;18.270;2023-05-03T06:41:48;101657.34;;;11.07;95.17
51928;BME280;37953;52.806;18.270;2023-05-03T06:44:14;101659.16;;;11.11;94.02
51928;BME280;37953;52.806;18.270;2023-05-03T06:46:40;101668.75;;;11.12;91.94
51928;BME280;37953;52.806;18.270;2023-05-03T06:49:06;101662.72;;;11.14;90.03
51928;BME280;37953;52.806;18.270;2023-05-03T06:51:32;101670.59;;;11.19;87.93
51928;BME280;37953;52.806;18.270;2023-05-03T06:53:59;101663.72;;;11.21;87.39
51928;BME280;37953;52.806;18.270;2023-05-03T06:56:34;101675.88;;;11.22;85.22
51928;BME280;37953;52.806;18.270;2023-05-03T06:59:01;101675.88;;;11.24;84.29
51928;BME280;37953;52.806;18.270;2023-05-03T07:01:31;101673.28;;;11.24;80.14
51928;BME280;37953;52.806;18.270;2023-05-03T07:03:57;101670.72;;;11.25;79.60
51928;BME280;37953;52.806;18.270;2023-05-03T07:06:23;101669.03;;;11.27;79.08
51928;BME280;37953;52.806;18.270;2023-05-03T07:08:50;101672.50;;;11.28;78.83
51928;BME280;37953;52.806;18.270;2023-05-03T07:11:20;101665.59;;;11.28;77.31
51928;BME280;37953;52.806;18.270;2023-05-03T07:13:54;101676.91;;;11.30;77.40
51928;BME280;37953;52.806;18.270;2023-05-03T07:16:20;101676.91;;;11.30;75.44
51928;BME280;37953;52.806;18.270;2023-05-03T07:18:47;101676.97;;;11.33;74.53
51928;BME280;37953;52.806;18.270;2023-05-03T07:21:13;101673.53;;;11.36;74.62
51928;BME280;37953;52.806;18.270;2023-05-03T07:23:43;101682.28;;;11.39;72.38
51928;BME280;37953;52.806;18.270;2023-05-03T07:26:09;101677.97;;;11.41;72.05
51928;BME280;37953;52.806;18.270;2023-05-03T07:28:35;101673.72;;;11.45;73.50
51928;BME280;37953;52.806;18.270;2023-05-03T07:31:02;101677.22;;;11.47;73.26
51928;BME280;37953;52.806;18.270;2023-05-03T07:33:32;101681.59;;;11.50;69.90
51928;BME280;37953;52.806;18.270;2023-05-03T07:35:58;101675.59;;;11.54;69.43
51928;BME280;37953;52.806;18.270;2023-05-03T07:38:24;101678.25;;;11.57;68.56
51928;BME280;37953;52.806;18.270;2023-05-03T07:40:50;101682.63;;;11.58;67.53
51928;BME280;37953;52.806;18.270;2023-05-03T07:43:16;101680.06;;;11.61;68.95
51928;BME280;37953;52.806;18.270;2023-05-03T07:45:48;101674.94;;;11.64;68.76
51928;BME280;37953;52.806;18.270;2023-05-03T07:48:21;101675.03;;;11.72;69.89
51928;BME280;37953;52.806;18.270;2023-05-03T07:50:46;101670.78;;;11.75;69.63
51928;BME280;37953;52.806;18.270;2023-05-03T07:53:13;101672.63;;;11.81;69.82
51928;BME280;37953;52.806;18.270;2023-05-03T07:55:39;101663.94;;;11.82;67.17
51928;BME280;37953;52.806;18.270;2023-05-03T07:58:06;101670.91;;;11.85;67.66
51928;BME280;37953;52.806;18.270;2023-05-03T08:00:33;101678.81;;;11.88;65.75
51928;BME280;37953;52.806;18.270;2023-05-03T08:02:59;101677.19;;;11.93;64.35
51928;BME280;37953;52.806;18.270;2023-05-03T08:05:28;101679.00;;;11.98;64.80
51928;BME280;37953;52.806;18.270;2023-05-03T08:07:54;101667.81;;;12.06;65.33
51928;BME280;37953;52.806;18.270;2023-05-03T08:10:20;101672.28;;;12.11;63.35
51928;BME280;37953;52.806;18.270;2023-05-03T08:12:46;101681.88;;;12.17;62.63
51928;BME280;37953;52.806;18.270;2023-05-03T08:15:12;101674.91;;;12.14;59.02
51928;BME280;37953;52.806;18.270;2023-05-03T08:17:43;101667.09;;;12.14;58.45
51928;BME280;37953;52.806;18.270;2023-05-03T08:20:10;101676.69;;;12.17;58.48
51928;BME280;37953;52.806;18.270;2023-05-03T08:22:37;101673.19;;;12.16;57.87
51928;BME280;37953;52.806;18.270;2023-05-03T08:25:05;101672.38;;;12.17;57.57
51928;BME280;37953;52.806;18.270;2023-05-03T08:27:37;101670.66;;;12.21;57.84
51928;BME280;37953;52.806;18.270;2023-05-03T08:30:05;101673.38;;;12.26;58.06
51928;BME280;37953;52.806;18.270;2023-05-03T08:32:32;101679.53;;;12.32;57.89
51928;BME280;37953;52.806;18.270;2023-05-03T08:34:58;101682.19;;;12.35;56.88
51928;BME280;37953;52.806;18.270;2023-05-03T08:37:25;101677.91;;;12.39;55.97
51928;BME280;37953;52.806;18.270;2023-05-03T08:39:59;101680.53;;;12.42;55.24
51928;BME280;37953;52.806;18.270;2023-05-03T08:42:26;101684.94;;;12.45;55.37
51928;BME280;37953;52.806;18.270;2023-05-03T08:44:56;101678.06;;;12.50;55.78
51928;BME280;37953;52.806;18.270;2023-05-03T08:47:22;101676.44;;;12.58;57.36
51928;BME280;37953;52.806;18.270;2023-05-03T08:49:50;101677.41;;;12.66;58.44
51928;BME280;37953;52.806;18.270;2023-05-03T08:52:17;101678.34;;;12.71;58.48
51928;BME280;37953;52.806;18.270;2023-05-03T08:54:46;101680.09;;;12.74;57.22
51928;BME280;37953;52.806;18.270;2023-05-03T08:57:24;101677.56;;;12.77;55.46
51928;BME280;37953;52.806;18.270;2023-05-03T08:59:51;101684.50;;;12.78;56.08
51928;BME280;37953;52.806;18.270;2023-05-03T09:02:25;101684.50;;;12.76;56.85
51928;BME280;37953;52.806;18.270;2023-05-03T09:04:54;101686.22;;;12.76;56.62
51928;BME280;37953;52.806;18.270;2023-05-03T09:07:21;101676.66;;;12.75;55.46
51928;BME280;37953;52.806;18.270;2023-05-03T09:09:47;101674.06;;;12.78;55.31
51928;BME280;37953;52.806;18.270;2023-05-03T09:12:34;101681.09;;;12.82;54.83
51928;BME280;37953;52.806;18.270;2023-05-03T09:15:01;101681.97;;;12.84;55.77
51928;BME280;37953;52.806;18.270;2023-05-03T09:17:28;101679.44;;;12.87;56.21
51928;BME280;37953;52.806;18.270;2023-05-03T09:19:55;101682.91;;;12.88;54.49
51928;BME280;37953;52.806;18.270;2023-05-03T09:22:25;101676.84;;;12.90;55.14
51928;BME280;37953;52.806;18.270;2023-05-03T09:24:54;101673.44;;;12.97;56.05
51928;BME280;37953;52.806;18.270;2023-05-03T09:27:20;101673.50;;;13.00;55.01
51928;BME280;37953;52.806;18.270;2023-05-03T09:29:47;101683.94;;;13.00;54.63
51928;BME280;37953;52.806;18.270;2023-05-03T09:32:19;101680.53;;;13.06;55.22
51928;BME280;37953;52.806;18.270;2023-05-03T09:34:47;101687.53;;;13.12;56.62
51928;BME280;37953;52.806;18.270;2023-05-03T09:37:13;101687.59;;;13.15;55.06
51928;BME280;37953;52.806;18.270;2023-05-03T09:39:40;101683.25;;;13.18;53.11
51928;BME280;37953;52.806;18.270;2023-05-03T09:42:16;101677.22;;;13.22;52.57
51928;BME280;37953;52.806;18.270;2023-05-03T09:44:44;101672.88;;;13.21;50.99
51928;BME280;37953;52.806;18.270;2023-05-03T09:47:14;101673.78;;;13.25;52.39
51928;BME280;37953;52.806;18.270;2023-05-03T09:49:40;101679.00;;;13.23;51.05
51928;BME280;37953;52.806;18.270;2023-05-03T09:52:12;101681.63;;;13.25;50.38
51928;BME280;37953;52.806;18.270;2023-05-03T09:54:38;101679.03;;;13.28;51.02
51928;BME280;37953;52.806;18.270;2023-05-03T09:57:07;101671.22;;;13.28;50.11
51928;BME280;37953;52.806;18.270;2023-05-03T09:59:34;101670.41;;;13.32;50.39
51928;BME280;37953;52.806;18.270;2023-05-03T10:02:05;101672.19;;;13.36;50.38
51928;BME280;37953;52.806;18.270;2023-05-03T10:04:41;101664.47;;;13.44;50.14
51928;BME280;37953;52.806;18.270;2023-05-03T10:07:12;101666.28;;;13.53;50.73
51928;BME280;37953;52.806;18.270;2023-05-03T10:09:42;101663.75;;;13.59;50.67
51928;BME280;37953;52.806;18.270;2023-05-03T10:12:09;101666.38;;;13.65;49.93
51928;BME280;37953;52.806;18.270;2023-05-03T10:14:44;101664.69;;;13.70;50.28
51928;BME280;37953;52.806;18.270;2023-05-03T10:17:33;101659.56;;;13.78;49.40
51928;BME280;37953;52.806;18.270;2023-05-03T10:20:09;101664.75;;;13.76;48.44
51928;BME280;37953;52.806;18.270;2023-05-03T10:23:12;101657.81;;;13.78;48.01
51928;BME280;37953;52.806;18.270;2023-05-03T10:28:25;101658.72;;;13.85;48.94
51928;BME280;37953;52.806;18.270;2023-05-03T10:30:51;101656.13;;;13.88;49.79
51928;BME280;37953;52.806;18.270;2023-05-03T10:35:50;101652.69;;;13.89;49.13
51928;BME280;37953;52.806;18.270;2023-05-03T10:38:24;101645.72;;;13.94;52.49
51928;BME280;37953;52.806;18.270;2023-05-03T10:40:51;101637.09;;;14.00;52.61
51928;BME280;37953;52.806;18.270;2023-05-03T10:46:01;101639.84;;;14.18;53.08
51928;BME280;37953;52.806;18.270;2023-05-03T10:48:29;101645.09;;;14.28;53.47
51928;BME280;37953;52.806;18.270;2023-05-03T10:50:56;101647.75;;;14.32;52.89
51928;BME280;37953;52.806;18.270;2023-05-03T10:56:09;101647.75;;;14.32;51.03
51928;BME280;37953;52.806;18.270;2023-05-03T10:58:40;101646.84;;;14.29;51.03
51928;BME280;37953;52.806;18.270;2023-05-03T11:01:09;101644.22;;;14.25;50.35
51928;BME280;37953;52.806;18.270;2023-05-03T11:04:06;101659.00;;;14.23;50.33
51928;BME280;37953;52.806;18.270;2023-05-03T11:06:38;101653.78;;;14.20;50.68
51928;BME280;37953;52.806;18.270;2023-05-03T11:09:08;101652.06;;;14.22;51.52
51928;BME280;37953;52.806;18.270;2023-05-03T11:11:36;101651.22;;;14.30;50.86
51928;BME280;37953;52.806;18.270;2023-05-03T11:14:04;101654.75;;;14.38;51.11
51928;BME280;37953;52.806;18.270;2023-05-03T11:16:30;101658.28;;;14.44;49.54
51928;BME280;37953;52.806;18.270;2023-05-03T11:19:03;101656.63;;;14.56;50.98
51928;BME280;37953;52.806;18.270;2023-05-03T11:21:31;101657.53;;;14.59;51.01
51928;BME280;37953;52.806;18.270;2023-05-03T11:23:58;101657.53;;;14.61;51.17
51928;BME280;37953;52.806;18.270;2023-05-03T11:26:24;101664.47;;;14.57;50.63
51928;BME280;37953;52.806;18.270;2023-05-03T11:28:52;101660.13;;;14.59;51.37
51928;BME280;37953;52.806;18.270;2023-05-03T11:31:23;101665.38;;;14.64;53.32
51928;BME280;37953;52.806;18.270;2023-05-03T11:33:49;101664.56;;;14.70;53.20
51928;BME280;37953;52.806;18.270;2023-05-03T11:36:15;101660.22;;;14.76;52.59
51928;BME280;37953;52.806;18.270;2023-05-03T11:38:42;101660.25;;;14.78;46.76
51928;BME280;37953;52.806;18.270;2023-05-03T11:41:15;101662.88;;;14.87;48.00
51928;BME280;37953;52.806;18.270;2023-05-03T11:43:48;101661.16;;;14.91;46.56
51928;BME280;37953;52.806;18.270;2023-05-03T11:46:18;101664.66;;;14.97;48.21
51928;BME280;37953;52.806;18.270;2023-05-03T11:48:46;101660.31;;;14.98;45.65
51928;BME280;37953;52.806;18.270;2023-05-03T11:51:12;101658.59;;;15.01;46.36
51928;BME280;37953;52.806;18.270;2023-05-03T11:53:40;101653.38;;;15.07;45.97
51928;BME280;37953;52.806;18.270;2023-05-03T11:56:10;101653.41;;;15.14;46.60
51928;BME280;37953;52.806;18.270;2023-05-03T11:58:57;101649.91;;;15.21;44.21
51928;BME280;37953;52.806;18.270;2023-05-03T12:01:25;101653.44;;;15.29;45.79
51928;BME280;37953;52.806;18.270;2023-05-03T12:03:58;101645.59;;;15.37;46.09
51928;BME280;37953;52.806;18.270;2023-05-03T12:06:25;101652.56;;;15.42;44.83
51928;BME280;37953;52.806;18.270;2023-05-03T12:08:53;101655.19;;;15.48;45.99
51928;BME280;37953;52.806;18.270;2023-05-03T12:11:19;101660.44;;;15.53;46.66
51928;BME280;37953;52.806;18.270;2023-05-03T12:13:58;101650.00;;;15.58;47.00
51928;BME280;37953;52.806;18.270;2023-05-03T12:16:24;101656.09;;;15.58;46.23
51928;BME280;37953;52.806;18.270;2023-05-03T12:18:56;101660.47;;;15.58;45.75
51928;BME280;37953;52.806;18.270;2023-05-03T12:21:46;101657.84;;;15.56;46.57
51928;BME280;37953;52.806;18.270;2023-05-03T12:24:12;101656.09;;;15.52;47.44
51928;BME280;37953;52.806;18.270;2023-05-03T12:26:46;101653.44;;;15.44;45.67
51928;BME280;37953;52.806;18.270;2023-05-03T12:29:13;101645.56;;;15.38;45.32
51928;BME280;37953;52.806;18.270;2023-05-03T12:31:39;101653.44;;;15.31;44.63
51928;BME280;37953;52.806;18.270;2023-05-03T12:34:07;101649.06;;;15.30;45.50
51928;BME280;37953;52.806;18.270;2023-05-03T12:36:33;101651.69;;;15.36;48.11
51928;BME280;37953;52.806;18.270;2023-05-03T12:39:06;101656.06;;;15.44;46.56
51928;BME280;37953;52.806;18.270;2023-05-03T12:41:33;101652.59;;;15.56;48.11
51928;BME280;37953;52.806;18.270;2023-05-03T12:43:59;101655.22;;;15.64;45.74
51928;BME280;37953;52.806;18.270;2023-05-03T12:46:26;101647.34;;;15.70;44.61
51928;BME280;37953;52.806;18.270;2023-05-03T12:48:53;101641.28;;;15.77;44.64
51928;BME280;37953;52.806;18.270;2023-05-03T12:51:19;101643.91;;;15.86;44.90
51928;BME280;37953;52.806;18.270;2023-05-03T12:53:46;101645.63;;;15.94;44.83
51928;BME280;37953;52.806;18.270;2023-05-03T12:56:18;101637.78;;;16.03;44.83
51928;BME280;37953;52.806;18.270;2023-05-03T12:58:44;101643.88;;;16.08;42.11
51928;BME280;37953;52.806;18.270;2023-05-03T13:01:20;101629.03;;;16.19;44.18